Time;durP1;ratioP1;P1;durP2;ratioP2;P2;SDS_P1;SDS_P2;PMS_P1;PMS_P2;Temp;Humidity;BMP_temperature;BMP_pressure;BME280_temperature;BME280_humidity;BME280_pressure;Samples;Min_cycle;Max_cycle;Signal;HPM_P1;HPM_P2
2023/03/27 00:01:32;;;;;;;10.25;5.55;;;;;;;9.12;83.93;98118.00;5052630;28;20021;-76
2023/03/27 00:03:57;;;;;;;9.85;5.03;;;;;;;9.08;83.83;98121.72;5053002;28;20025;-76
2023/03/27 00:06:26;;;;;;;9.30;4.95;;;;;;;9.06;84.00;98118.41;5053174;28;20028;-76
2023/03/27 00:08:51;;;;;;;7.07;4.95;;;;;;;8.89;84.21;98096.13;5052042;28;20079;-76
2023/03/27 00:11:17;;;;;;;8.20;4.75;;;;;;;8.88;84.27;98101.41;5052634;28;20472;-76
2023/03/27 00:13:43;;;;;;;8.70;4.65;;;;;;;8.95;84.54;98119.09;5052542;28;20033;-76
2023/03/27 00:16:09;;;;;;;9.00;5.45;;;;;;;8.95;84.47;98121.69;5052871;28;20484;-76
2023/03/27 00:18:35;;;;;;;6.55;4.90;;;;;;;8.94;84.62;98124.41;5052286;28;20032;-76
2023/03/27 00:21:02;;;;;;;7.35;4.75;;;;;;;8.80;84.48;98106.25;5052719;28;20415;-76
2023/03/27 00:23:31;;;;;;;7.47;4.55;;;;;;;8.94;84.59;98130.41;5052511;28;20028;-76
2023/03/27 00:25:57;;;;;;;8.95;4.97;;;;;;;8.91;84.77;98124.59;5052222;28;20473;-76
2023/03/27 00:28:26;;;;;;;8.15;5.10;;;;;;;8.92;84.71;98124.47;5052629;28;20080;-76
2023/03/27 00:30:52;;;;;;;8.48;5.00;;;;;;;8.78;84.87;98093.38;5052199;28;20032;-76
2023/03/27 00:33:17;;;;;;;7.22;4.60;;;;;;;8.88;84.91;98117.81;5052441;28;20029;-76
2023/03/27 00:35:47;;;;;;;7.95;4.65;;;;;;;8.85;85.01;98114.56;5052132;28;20538;-76
2023/03/27 00:38:14;;;;;;;9.77;6.53;;;;;;;8.84;84.90;98107.72;5052213;28;20071;-76
2023/03/27 00:40:43;;;;;;;10.48;5.78;;;;;;;8.80;84.65;98099.28;5052203;28;20028;-76
2023/03/27 00:43:41;;;;;;;8.63;5.65;;;;;;;8.81;85.00;98110.53;5052077;28;20051;-76
2023/03/27 00:46:26;;;;;;;9.48;5.55;;;;;;;8.59;85.16;98085.09;5029728;28;20041;-76
2023/03/27 00:48:54;;;;;;;9.75;6.32;;;;;;;8.55;85.33;98089.63;5029573;28;20065;-76
2023/03/27 00:51:22;;;;;;;9.75;7.13;;;;;;;8.63;85.71;98104.72;5029661;28;20068;-76
2023/03/27 00:53:49;;;;;;;8.98;6.05;;;;;;;8.42;86.43;98114.69;5029517;28;20441;-76
2023/03/27 00:56:15;;;;;;;8.15;5.57;;;;;;;8.30;86.23;98092.94;5029534;28;20128;-76
2023/03/27 00:58:49;;;;;;;10.18;6.55;;;;;;;8.17;87.14;98097.19;5029411;28;20116;-76
2023/03/27 01:01:15;;;;;;;8.70;6.15;;;;;;;8.29;87.54;98111.16;5029679;28;20036;-76
2023/03/27 01:03:44;;;;;;;8.98;5.75;;;;;;;8.28;87.47;98096.53;5029507;28;20048;-76
2023/03/27 01:06:12;;;;;;;11.45;6.72;;;;;;;8.31;87.80;98111.91;5029759;28;20029;-76
2023/03/27 01:08:41;;;;;;;8.52;6.80;;;;;;;8.16;88.67;98113.69;5029572;28;20473;-76
2023/03/27 01:11:26;;;;;;;12.43;7.78;;;;;;;8.12;88.37;98100.06;5029400;28;20112;-76
2023/03/27 01:14:29;;;;;;;11.20;7.25;;;;;;;8.14;88.42;98106.00;5029158;28;20029;-76
2023/03/27 01:17:05;;;;;;;13.68;9.20;;;;;;;8.06;89.40;98112.59;5029124;28;20370;-76
2023/03/27 01:19:57;;;;;;;18.05;11.18;;;;;;;7.71;90.37;98108.59;5029085;28;20140;-76
2023/03/27 01:22:32;;;;;;;;;;;;;;;7.54;91.60;98113.09;5040020;28;20041;-76
2023/03/27 01:25:07;;;;;;;24.02;15.93;;;;;;;7.36;91.82;98082.16;5051324;28;19960;-76
2023/03/27 01:28:07;;;;;;;23.38;16.52;;;;;;;7.46;91.85;98098.84;5051494;28;20102;-76
2023/03/27 01:30:43;;;;;;;29.00;18.98;;;;;;;7.30;92.32;98072.19;5051697;28;20075;-76
2023/03/27 01:33:31;;;;;;;30.45;18.70;;;;;;;7.20;93.19;98077.03;5051625;28;20025;-76
2023/03/27 01:36:27;;;;;;;29.08;18.02;;;;;;;7.22;93.56;98100.28;5051338;28;20515;-76
2023/03/27 01:39:05;;;;;;;25.05;17.38;;;;;;;7.18;93.75;98098.78;5051362;28;20048;-76
2023/03/27 01:42:14;;;;;;;25.50;16.75;;;;;;;7.16;94.48;98104.06;5051544;28;20104;-76
2023/03/27 01:44:52;;;;;;;29.08;17.67;;;;;;;7.20;94.36;98104.69;5008887;28;20478;-76
2023/03/27 01:47:49;;;;;;;26.83;16.95;;;;;;;7.18;95.14;98109.97;5009259;28;20478;-76
2023/03/27 01:50:23;;;;;;;29.10;17.52;;;;;;;7.19;95.76;98111.63;5009053;28;20042;-76
2023/03/27 01:53:14;;;;;;;25.20;17.63;;;;;;;6.94;96.09;98086.31;5009001;28;20034;-75
2023/03/27 01:55:45;;;;;;;30.77;18.65;;;;;;;6.86;97.32;98074.72;4992383;28;20461;-76
2023/03/27 01:58:17;;;;;;;36.13;20.38;;;;;;;6.70;98.18;98087.69;5009277;28;20033;-76
2023/03/27 02:00:49;;;;;;;37.85;21.60;;;;;;;6.71;99.08;98099.72;5009086;28;20180;-76
2023/03/27 02:03:21;;;;;;;40.00;23.42;;;;;;;6.55;99.13;98101.47;5009167;28;20062;-76
2023/03/27 02:06:11;;;;;;;31.48;23.40;;;;;;;6.63;99.50;98118.25;5008830;28;20041;-76
2023/03/27 02:08:37;;;;;;;36.85;24.55;;;;;;;6.55;99.06;98124.75;5009030;28;20034;-76
2023/03/27 02:11:03;;;;;;;30.10;21.90;;;;;;;6.52;98.90;98119.75;5008893;28;20042;-76
2023/03/27 02:13:38;;;;;;;30.70;21.73;;;;;;;6.31;98.93;98106.22;5009210;28;20034;-76
2023/03/27 02:16:08;;;;;;;28.92;19.58;;;;;;;6.31;98.60;98112.22;5008843;28;20046;-76
2023/03/27 02:18:37;;;;;;;30.70;19.55;;;;;;;6.06;97.87;98098.94;5008946;28;20459;-76
2023/03/27 02:21:03;;;;;;;27.50;18.73;;;;;;;5.92;98.28;98105.69;5021249;28;20044;-76
2023/03/27 02:23:31;;;;;;;31.63;16.58;;;;;;;5.91;98.07;98116.06;5049858;28;20064;-76
2023/03/27 02:25:58;;;;;;;26.73;14.90;;;;;;;5.90;97.54;98125.59;5050789;28;20036;-76
2023/03/27 02:28:51;;;;;;;23.88;12.55;;;;;;;5.85;96.27;98142.22;5051018;28;20033;-76
2023/03/27 02:31:34;;;;;;;27.33;12.40;;;;;;;5.66;95.36;98116.50;5050857;28;20024;-76
2023/03/27 02:34:40;;;;;;;25.80;11.38;;;;;;;5.64;94.60;98123.47;5053562;28;20025;-76
2023/03/27 02:37:29;;;;;;;23.35;8.65;;;;;;;5.43;93.19;98127.97;5054447;28;20491;-76
2023/03/27 02:40:12;;;;;;;20.52;8.43;;;;;;;5.49;90.81;98164.69;5054627;28;20032;-76
2023/03/27 02:42:42;;;;;;;23.80;7.22;;;;;;;5.35;90.22;98163.66;5054545;28;20025;-76
2023/03/27 02:45:21;;;;;;;18.73;6.78;;;;;;;5.43;90.02;98167.53;5054814;28;20091;-76
2023/03/27 02:47:57;;;;;;;20.02;6.53;;;;;;;5.25;90.45;98146.06;5054164;28;20028;-76
2023/03/27 02:50:29;;;;;;;21.17;7.93;;;;;;;5.18;90.98;98152.44;5054219;28;20032;-76
2023/03/27 02:53:01;;;;;;;21.92;8.57;;;;;;;5.22;91.29;98182.38;5054460;28;20017;-76
2023/03/27 02:55:36;;;;;;;15.00;6.53;;;;;;;5.33;91.99;98181.81;5054233;28;20461;-76
2023/03/27 02:58:09;;;;;;;19.77;6.07;;;;;;;5.20;91.07;98201.41;5053894;28;20104;-76
2023/03/27 03:00:39;;;;;;;18.88;6.65;;;;;;;5.19;91.00;98217.81;5054208;28;20108;-76
2023/03/27 03:03:16;;;;;;;21.65;5.90;;;;;;;5.10;92.03;98219.09;5053946;28;20037;-76
2023/03/27 03:05:42;;;;;;;20.95;6.82;;;;;;;5.07;92.75;98198.56;5053968;28;20048;-76
2023/03/27 03:08:09;;;;;;;20.98;6.78;;;;;;;5.23;93.00;98219.34;5053867;28;20048;-76
2023/03/27 03:10:35;;;;;;;17.15;6.35;;;;;;;4.81;93.24;98197.22;5053973;28;20025;-76
2023/03/27 03:13:01;;;;;;;15.98;6.28;;;;;;;4.52;95.27;98211.44;5053781;28;20063;-76
2023/03/27 03:15:27;;;;;;;14.98;5.93;;;;;;;4.51;96.04;98243.28;5053888;28;20472;-76
2023/03/27 03:17:52;;;;;;;16.75;6.25;;;;;;;4.34;96.97;98251.78;5053559;28;20032;-76
2023/03/27 03:20:18;;;;;;;16.88;6.90;;;;;;;4.28;96.84;98249.44;5053591;28;20057;-76
2023/03/27 03:22:43;;;;;;;13.88;6.95;;;;;;;3.85;96.56;98228.09;5053555;28;20449;-76
2023/03/27 03:25:11;;;;;;;12.57;5.90;;;;;;;3.54;97.86;98233.69;5053809;28;20029;-76
2023/03/27 03:27:37;;;;;;;11.55;5.70;;;;;;;3.39;98.27;98245.44;5053711;28;20120;-76
2023/03/27 03:30:04;;;;;;;21.02;5.90;;;;;;;3.11;99.46;98255.13;5053507;28;20090;-76
2023/03/27 03:32:29;;;;;;;17.70;6.07;;;;;;;3.22;100.00;98258.13;5053604;28;20031;-76
2023/03/27 03:34:55;;;;;;;13.32;5.97;;;;;;;3.05;100.00;98245.94;5053341;28;20104;-76
2023/03/27 03:37:25;;;;;;;17.95;6.32;;;;;;;3.08;100.00;98266.41;5053382;28;20029;-76
2023/03/27 03:39:51;;;;;;;13.80;5.18;;;;;;;3.22;100.00;98307.03;5053361;28;20376;-76
2023/03/27 03:42:16;;;;;;;12.60;4.47;;;;;;;3.24;100.00;98298.34;5053465;28;20025;-76
2023/03/27 03:44:41;;;;;;;11.60;4.65;;;;;;;3.20;100.00;98309.66;5052275;28;20111;-76
2023/03/27 03:47:07;;;;;;;14.13;4.50;;;;;;;3.16;100.00;98305.53;5053305;28;20060;-76
2023/03/27 03:49:32;;;;;;;10.77;4.20;;;;;;;3.21;100.00;98305.34;5053208;28;20047;-76
2023/03/27 03:51:57;;;;;;;11.05;3.95;;;;;;;2.98;100.00;98295.91;5052755;28;20021;-76
2023/03/27 03:54:22;;;;;;;15.30;5.00;;;;;;;3.10;100.00;98323.75;5053284;28;20492;-76
2023/03/27 03:56:48;;;;;;;16.17;4.78;;;;;;;3.00;100.00;98317.28;5053023;28;20029;-75
2023/03/27 03:59:13;;;;;;;15.27;5.35;;;;;;;3.05;100.00;98317.13;5053102;28;20059;-76
2023/03/27 04:01:39;;;;;;;14.90;4.97;;;;;;;3.10;100.00;98317.78;5052707;28;20029;-76
2023/03/27 04:04:05;;;;;;;13.32;4.65;;;;;;;3.07;100.00;98315.31;5052547;28;20472;-76
2023/03/27 04:06:31;;;;;;;12.38;4.75;;;;;;;2.89;100.00;98306.56;5052691;28;20033;-76
2023/03/27 04:08:57;;;;;;;13.63;4.70;;;;;;;3.04;100.00;98326.56;5052880;28;20048;-76
2023/03/27 04:11:22;;;;;;;15.68;4.90;;;;;;;2.92;100.00;98291.84;5052824;28;20460;-76
2023/03/27 04:13:48;;;;;;;17.42;6.43;;;;;;;2.95;100.00;98307.19;5052477;28;20098;-76
2023/03/27 04:16:14;;;;;;;16.02;5.95;;;;;;;3.19;100.00;98325.13;5052837;28;20419;-76
2023/03/27 04:18:40;;;;;;;14.98;5.63;;;;;;;2.96;100.00;98295.97;5052355;28;20021;-76
2023/03/27 04:21:13;;;;;;;13.23;5.93;;;;;;;3.03;100.00;98288.84;5052399;28;20029;-76
2023/03/27 04:23:39;;;;;;;20.80;6.78;;;;;;;3.41;100.00;98341.47;5052638;28;20033;-76
2023/03/27 04:26:04;;;;;;;14.23;5.70;;;;;;;3.16;100.00;98320.97;5052248;28;20021;-76
2023/03/27 04:28:33;;;;;;;16.35;6.72;;;;;;;2.99;100.00;98311.31;5052621;28;20108;-76
2023/03/27 04:31:05;;;;;;;16.33;6.18;;;;;;;3.13;100.00;98331.38;5052232;28;20111;-76
2023/03/27 04:33:34;;;;;;;16.30;6.07;;;;;;;3.27;100.00;98345.44;5052351;28;20449;-76
2023/03/27 04:36:03;;;;;;;15.30;6.13;;;;;;;3.23;100.00;98350.69;5052341;28;20033;-76
2023/03/27 04:38:30;;;;;;;18.23;6.43;;;;;;;3.26;100.00;98349.75;5052583;28;20415;-76
2023/03/27 04:40:56;;;;;;;18.55;7.20;;;;;;;3.29;100.00;98357.34;5052236;28;20025;-76
2023/03/27 04:43:24;;;;;;;17.70;6.10;;;;;;;3.29;100.00;98359.06;5052516;28;20112;-76
2023/03/27 04:45:50;;;;;;;15.98;6.28;;;;;;;3.45;100.00;98361.00;5052138;28;20029;-76
2023/03/27 04:48:16;;;;;;;12.20;5.75;;;;;;;3.29;100.00;98348.78;5052123;28;20495;-76
2023/03/27 04:50:48;;;;;;;14.38;5.20;;;;;;;3.40;100.00;98380.94;5052085;28;20243;-76
2023/03/27 04:53:13;;;;;;;12.50;6.47;;;;;;;3.46;100.00;98388.44;5052257;28;20067;-76
2023/03/27 04:55:39;;;;;;;9.52;4.93;;;;;;;3.17;99.90;98375.81;5051821;28;20025;-76
2023/03/27 04:58:04;;;;;;;9.43;5.05;;;;;;;3.28;99.93;98388.28;5051832;28;20029;-76
2023/03/27 05:00:30;;;;;;;9.07;4.13;;;;;;;3.29;99.06;98395.97;5052013;28;20098;-76
2023/03/27 05:02:56;;;;;;;9.07;4.82;;;;;;;3.19;98.96;98399.75;5051674;28;20029;-76
2023/03/27 05:05:22;;;;;;;6.82;3.92;;;;;;;3.03;99.21;98373.75;5052122;28;20059;-76
2023/03/27 05:07:48;;;;;;;8.20;3.88;;;;;;;3.25;98.92;98404.69;5052046;28;20485;-76
2023/03/27 05:10:16;;;;;;;8.13;3.35;;;;;;;3.11;98.40;98420.59;5051876;28;20032;-76
2023/03/27 05:12:43;;;;;;;5.30;3.92;;;;;;;3.13;98.48;98416.25;5052035;28;20063;-76
2023/03/27 05:15:09;;;;;;;7.82;4.05;;;;;;;2.96;98.13;98423.75;5051549;28;20425;-76
2023/03/27 05:17:39;;;;;;;5.68;3.63;;;;;;;3.02;98.34;98443.25;5051630;28;20029;-76
2023/03/27 05:20:07;;;;;;;3.42;2.78;;;;;;;2.60;97.08;98397.56;5051561;28;20522;-76
2023/03/27 05:22:32;;;;;;;8.52;2.92;;;;;;;2.41;97.65;98435.91;5051838;28;20025;-76
2023/03/27 05:24:57;;;;;;;3.65;3.05;;;;;;;2.36;99.05;98448.06;5051556;28;20036;-76
2023/03/27 05:27:23;;;;;;;4.95;3.00;;;;;;;2.55;99.17;98471.44;5051630;28;20028;-76
2023/03/27 05:29:48;;;;;;;6.40;3.45;;;;;;;2.61;99.47;98474.66;5052091;28;20033;-76
2023/03/27 05:32:13;;;;;;;5.38;3.38;;;;;;;2.72;99.09;98484.56;5051544;28;20108;-76
2023/03/27 05:34:39;;;;;;;4.22;3.40;;;;;;;2.48;100.00;98478.50;5051766;28;20473;-76
2023/03/27 05:37:04;;;;;;;4.55;3.63;;;;;;;2.34;100.00;98472.97;5051625;28;20036;-76
2023/03/27 05:39:30;;;;;;;7.43;4.25;;;;;;;2.32;100.00;98480.75;5051692;28;20461;-76
2023/03/27 05:41:55;;;;;;;6.10;3.95;;;;;;;2.30;100.00;98467.09;5051402;28;20025;-76
2023/03/27 05:44:22;;;;;;;5.55;3.85;;;;;;;2.41;100.00;98477.88;5051470;28;20633;-76
2023/03/27 05:46:47;;;;;;;8.77;5.97;;;;;;;2.60;99.74;98502.97;5051915;28;20059;-76
2023/03/27 05:49:13;;;;;;;7.70;5.65;;;;;;;2.52;99.67;98495.50;5051409;28;20065;-76
2023/03/27 05:51:38;;;;;;;11.95;6.07;;;;;;;2.38;99.62;98475.38;5051525;28;20449;-76
2023/03/27 05:54:03;;;;;;;8.48;5.72;;;;;;;2.42;99.91;98524.97;5051279;28;20033;-76
2023/03/27 05:56:29;;;;;;;6.70;5.00;;;;;;;2.45;100.00;98509.44;5051500;28;20470;-76
2023/03/27 05:58:55;;;;;;;6.32;5.72;;;;;;;2.49;100.00;98540.16;5051193;28;20113;-76
2023/03/27 06:01:22;;;;;;;8.30;5.80;;;;;;;2.53;100.00;98515.19;5051638;28;20024;-76
2023/03/27 06:03:48;;;;;;;6.00;4.90;;;;;;;2.35;100.00;98523.47;5051755;28;20055;-76
2023/03/27 06:06:14;;;;;;;7.95;5.88;;;;;;;2.37;100.00;98524.28;5051254;28;20017;-76
2023/03/27 06:08:40;;;;;;;9.18;6.72;;;;;;;2.66;100.00;98543.91;5053835;28;20427;-76
2023/03/27 06:11:13;;;;;;;9.80;6.40;;;;;;;2.26;100.00;98529.72;5054881;28;20078;-76
2023/03/27 06:13:39;;;;;;;6.80;5.80;;;;;;;2.42;100.00;98541.22;5055059;28;20071;-76
2023/03/27 06:16:05;;;;;;;6.45;5.30;;;;;;;2.69;100.00;98569.50;5055173;28;20021;-76
2023/03/27 06:18:31;;;;;;;10.48;5.93;;;;;;;2.80;99.19;98543.44;5054789;28;20028;-76
2023/03/27 06:20:57;;;;;;;9.55;6.38;;;;;;;2.75;98.75;98559.88;5054782;28;20121;-76
2023/03/27 06:23:22;;;;;;;7.82;6.30;;;;;;;2.92;98.52;98591.91;5054965;28;20491;-76
2023/03/27 06:25:48;;;;;;;9.32;6.97;;;;;;;2.78;98.39;98568.34;5054755;28;20061;-76
2023/03/27 06:28:13;;;;;;;8.48;6.55;;;;;;;2.98;97.71;98597.69;5054486;28;20100;-76
2023/03/27 06:30:39;;;;;;;10.65;7.68;;;;;;;2.91;97.82;98585.09;5054679;28;20025;-76
2023/03/27 06:33:06;;;;;;;10.18;7.32;;;;;;;3.00;97.80;98606.19;5054648;28;20083;-76
2023/03/27 06:35:33;;;;;;;10.73;7.10;;;;;;;3.02;97.43;98601.00;5054818;28;20028;-76
2023/03/27 06:37:59;;;;;;;9.90;7.32;;;;;;;3.12;96.88;98594.69;5054494;28;20111;-76
2023/03/27 06:40:26;;;;;;;11.43;7.95;;;;;;;3.32;96.67;98631.75;5054587;28;20039;-76
2023/03/27 06:43:00;;;;;;;15.25;10.05;;;;;;;3.15;96.18;98596.28;5054472;28;20039;-76
2023/03/27 06:45:32;;;;;;;26.48;14.60;;;;;;;3.47;96.00;98636.38;5054690;28;20468;-76
2023/03/27 06:48:02;;;;;;;;;;;;;;;3.42;95.63;98646.00;5054799;28;20029;-76
2023/03/27 06:50:29;;;;;;;16.60;10.68;;;;;;;3.35;95.59;98626.50;5054438;28;19913;-76
2023/03/27 06:52:56;;;;;;;12.98;8.75;;;;;;;3.27;95.42;98642.19;5054108;28;20029;-76
2023/03/27 06:55:23;;;;;;;12.60;7.63;;;;;;;3.18;95.08;98650.22;5054175;28;20063;-76
2023/03/27 06:57:51;;;;;;;9.20;5.60;;;;;;;3.21;93.94;98663.00;5054415;28;20029;-76
2023/03/27 07:00:21;;;;;;;7.22;4.60;;;;;;;3.14;92.71;98667.50;5054111;28;20021;-76
2023/03/27 07:02:56;;;;;;;7.18;4.57;;;;;;;3.07;92.09;98639.44;5054270;28;20040;-76
2023/03/27 07:05:24;;;;;;;8.75;4.00;;;;;;;3.06;91.61;98672.03;5054123;28;20051;-75
2023/03/27 07:07:49;;;;;;;7.00;3.78;;;;;;;3.23;90.66;98666.34;5054007;28;20036;-76
2023/03/27 07:10:14;;;;;;;7.45;4.50;;;;;;;3.39;89.95;98669.28;5053955;28;20033;-76
2023/03/27 07:12:47;;;;;;;8.35;4.18;;;;;;;3.40;88.99;98668.38;5054391;28;20025;-76
2023/03/27 07:15:13;;;;;;;8.10;3.72;;;;;;;3.57;88.50;98660.91;5054019;28;20033;-76
2023/03/27 07:17:43;;;;;;;9.95;5.25;;;;;;;3.72;87.92;98669.88;5044805;28;20021;-76
2023/03/27 07:20:11;;;;;;;8.15;4.70;;;;;;;3.94;87.16;98668.22;5033596;28;20057;-76
2023/03/27 07:22:37;;;;;;;9.18;4.97;;;;;;;4.07;86.19;98658.31;5033937;28;20029;-76
2023/03/27 07:25:04;;;;;;;4.70;3.45;;;;;;;4.18;84.95;98681.13;5034120;28;20475;-76
2023/03/27 07:27:29;;;;;;;7.47;3.60;;;;;;;4.63;83.63;98693.19;5033931;28;20385;-76
2023/03/27 07:29:57;;;;;;;5.88;3.70;;;;;;;5.05;82.39;98666.63;5033909;28;20021;-76
2023/03/27 07:32:23;;;;;;;5.47;3.58;;;;;;;4.78;81.72;98660.84;5033618;28;20038;-76
2023/03/27 07:34:48;;;;;;;5.07;3.50;;;;;;;4.66;81.54;98673.28;5033424;28;20488;-76
2023/03/27 07:37:14;;;;;;;6.72;3.42;;;;;;;4.94;81.77;98695.47;5033356;28;20087;-76
2023/03/27 07:39:40;;;;;;;6.88;4.03;;;;;;;4.82;80.98;98683.03;5033558;28;20040;-76
2023/03/27 07:42:06;;;;;;;5.40;3.42;;;;;;;4.91;79.10;98709.31;5033673;28;20037;-76
2023/03/27 07:44:31;;;;;;;7.78;3.60;;;;;;;5.63;79.84;98705.59;5033516;28;20044;-76
2023/03/27 07:46:57;;;;;;;4.43;3.40;;;;;;;6.49;77.81;98711.34;5033379;28;20075;-76
2023/03/27 07:49:22;;;;;;;5.13;3.00;;;;;;;6.97;73.61;98704.81;5033040;28;20087;-76
2023/03/27 07:51:47;;;;;;;4.65;3.05;;;;;;;6.37;72.75;98687.78;5033442;28;20033;-76
2023/03/27 07:54:14;;;;;;;6.80;3.20;;;;;;;6.08;73.45;98715.75;5031902;28;20469;-76
2023/03/27 07:56:39;;;;;;;7.30;3.35;;;;;;;5.63;74.24;98718.50;5033395;28;20048;-76
2023/03/27 07:59:06;;;;;;;4.80;3.33;;;;;;;5.10;75.71;98701.69;5033041;28;20025;-76
2023/03/27 08:01:33;;;;;;;9.27;4.38;;;;;;;4.92;77.24;98723.03;5033083;28;20104;-76
2023/03/27 08:03:59;;;;;;;5.90;4.25;;;;;;;4.59;77.37;98714.84;5032980;28;20037;-76
2023/03/27 08:06:25;;;;;;;8.82;5.45;;;;;;;4.59;78.45;98726.00;5033179;28;20068;-76
2023/03/27 08:08:51;;;;;;;9.90;3.88;;;;;;;4.49;78.12;98748.69;5033127;28;20477;-76
2023/03/27 08:11:17;;;;;;;4.47;3.20;;;;;;;4.42;77.96;98754.13;5032783;28;20029;-76
2023/03/27 08:13:43;;;;;;;6.43;3.70;;;;;;;3.75;78.14;98710.97;5032967;28;20037;-76
2023/03/27 08:16:12;;;;;;;7.43;4.10;;;;;;;3.90;78.82;98750.81;5032681;28;20532;-76
2023/03/27 08:18:37;;;;;;;5.35;4.28;;;;;;;3.72;79.36;98760.00;5032556;28;20025;-76
2023/03/27 08:21:04;;;;;;;6.65;3.97;;;;;;;3.08;78.71;98706.28;5032792;28;20394;-76
2023/03/27 08:23:32;;;;;;;8.73;4.90;;;;;;;3.75;79.40;98754.75;5032735;28;20029;-76
2023/03/27 08:26:00;;;;;;;6.90;4.20;;;;;;;3.77;80.18;98746.97;5032838;28;20025;-76
2023/03/27 08:28:27;;;;;;;6.68;3.60;;;;;;;3.83;78.54;98749.31;5032709;28;20504;-76
2023/03/27 08:30:53;;;;;;;5.30;4.13;;;;;;;3.55;78.07;98747.69;5031916;28;20025;-76
2023/03/27 08:33:18;;;;;;;6.53;3.38;;;;;;;3.83;78.87;98778.50;5032206;28;20031;-76
2023/03/27 08:35:50;;;;;;;7.60;4.20;;;;;;;3.61;78.32;98773.22;5032982;28;20025;-76
2023/03/27 08:38:16;;;;;;;11.57;5.97;;;;;;;3.80;79.51;98776.03;5032403;28;20087;-76
2023/03/27 08:40:47;;;;;;;14.75;9.43;;;;;;;3.75;79.85;98740.13;5032588;28;20175;-76
2023/03/27 08:43:17;;;;;;;14.60;8.27;;;;;;;3.90;78.51;98785.13;5032208;28;20481;-76
2023/03/27 08:46:00;;;;;;;8.05;5.10;;;;;;;3.94;80.13;98796.19;5032280;28;20025;-76
2023/03/27 08:48:33;;;;;;;11.32;5.45;;;;;;;4.11;80.43;98799.03;5032106;28;20499;-76
2023/03/27 08:51:04;;;;;;;5.80;4.00;;;;;;;3.99;79.26;98800.28;5032342;28;20053;-76
2023/03/27 08:53:48;;;;;;;5.30;4.05;;;;;;;4.13;78.81;98802.41;5032344;28;20033;-76
2023/03/27 08:56:14;;;;;;;9.32;4.40;;;;;;;4.04;78.98;98782.09;5031920;28;20033;-76
2023/03/27 08:58:42;;;;;;;9.57;4.40;;;;;;;4.22;79.45;98791.78;5032200;28;20034;-76
2023/03/27 09:01:17;;;;;;;9.07;5.13;;;;;;;4.12;78.75;98785.25;5031971;28;20029;-76
2023/03/27 09:03:51;;;;;;;6.78;4.65;;;;;;;3.96;78.63;98802.97;5032172;28;20520;-76
2023/03/27 09:06:19;;;;;;;10.05;4.60;;;;;;;4.12;79.76;98807.59;5032102;28;20036;-76
2023/03/27 09:09:14;;;;;;;9.88;4.78;;;;;;;4.24;79.43;98815.75;5031969;28;20053;-76
2023/03/27 09:11:50;;;;;;;6.82;4.30;;;;;;;3.97;79.63;98786.63;5009728;28;20482;-76
2023/03/27 09:14:42;;;;;;;8.80;4.40;;;;;;;4.16;81.00;98804.88;5009536;28;20045;-76
2023/03/27 09:17:32;;;;;;;10.82;4.97;;;;;;;4.08;80.55;98790.56;4951258;28;20043;-76
2023/03/27 09:20:18;;;;;;;16.08;8.27;;;;;;;4.24;80.61;98813.19;4951536;29;20047;-76
2023/03/27 09:22:51;;;;;;;10.20;5.50;;;;;;;4.39;80.38;98792.94;4951403;29;20053;-76
2023/03/27 09:25:23;;;;;;;9.77;4.75;;;;;;;4.08;77.85;98818.91;4951186;29;20031;-76
2023/03/27 09:27:51;;;;;;;;;;;;;;;4.23;78.84;98829.53;4951689;29;20050;-76
2023/03/27 09:30:23;;;;;;;9.10;5.45;;;;;;;4.38;78.44;98835.06;4950991;28;19918;-76
2023/03/27 09:32:52;;;;;;;8.80;5.10;;;;;;;4.23;75.85;98826.97;4951293;29;20038;-76
2023/03/27 09:35:19;;;;;;;6.07;4.05;;;;;;;4.46;76.74;98825.31;4951035;28;20556;-75
2023/03/27 09:37:47;;;;;;;8.30;4.90;;;;;;;4.14;75.65;98805.81;4951308;29;20162;-75
2023/03/27 09:40:23;;;;;;;8.18;3.65;;;;;;;4.48;76.24;98832.13;4951129;29;20042;-75
2023/03/27 09:42:52;;;;;;;4.97;2.90;;;;;;;4.85;74.43;98848.88;4954156;28;20050;-75
2023/03/27 09:45:18;;;;;;;5.28;3.15;;;;;;;4.86;74.04;98847.97;4955020;29;20027;-75
2023/03/27 09:47:49;;;;;;;5.93;3.95;;;;;;;4.55;72.75;98801.81;4959831;28;20182;-75
2023/03/27 09:50:17;;;;;;;7.15;4.60;;;;;;;5.00;73.53;98863.78;4993462;28;20034;-75
2023/03/27 09:52:42;;;;;;;10.77;6.13;;;;;;;4.31;73.08;98846.50;4993768;28;20069;-76
2023/03/27 09:55:25;;;;;;;5.68;3.53;;;;;;;4.53;73.71;98878.38;5032642;28;20065;-75
2023/03/27 09:57:58;;;;;;;5.97;3.88;;;;;;;4.57;73.91;98885.13;5035589;28;20029;-75
2023/03/27 10:00:32;;;;;;;16.33;8.98;;;;;;;4.43;73.71;98883.00;5035219;28;20057;-75
2023/03/27 10:03:07;;;;;;;10.25;5.85;;;;;;;4.25;73.52;98863.81;5035296;28;20659;-75
2023/03/27 10:05:34;;;;;;;12.98;7.03;;;;;;;4.47;73.14;98894.06;5035526;28;20057;-75
2023/03/27 10:08:00;;;;;;;11.02;5.63;;;;;;;4.29;73.64;98863.72;5035342;28;20030;-75
2023/03/27 10:10:31;;;;;;;6.88;4.50;;;;;;;4.66;74.51;98902.84;5034754;28;20109;-75
2023/03/27 10:12:58;;;;;;;5.20;3.77;;;;;;;4.70;73.80;98888.09;5035222;28;20073;-75
2023/03/27 10:15:31;;;;;;;16.42;8.77;;;;;;;4.55;72.33;98902.38;5034849;28;20029;-75
2023/03/27 10:17:57;;;;;;;4.88;3.75;;;;;;;4.78;72.40;98899.00;5035251;28;20022;-76
2023/03/27 10:20:24;;;;;;;5.13;3.90;;;;;;;4.89;71.25;98858.19;5034655;28;20056;-75
2023/03/27 10:23:01;;;;;;;8.70;4.38;;;;;;;4.88;69.78;98904.66;5035090;28;20433;-75
2023/03/27 10:25:33;;;;;;;6.97;4.28;;;;;;;4.89;69.44;98903.81;5034581;28;20112;-75
2023/03/27 10:28:39;;;;;;;5.00;3.35;;;;;;;4.96;69.20;98913.81;5034887;28;20059;-75
2023/03/27 10:31:09;;;;;;;8.43;3.47;;;;;;;4.95;68.64;98906.16;5012633;28;20581;-75
2023/03/27 10:33:38;;;;;;;4.15;3.05;;;;;;;4.95;69.23;98906.97;5012674;28;20064;-75
2023/03/27 10:36:07;;;;;;;7.72;5.22;;;;;;;4.79;68.74;98921.31;5012490;28;20141;-75
2023/03/27 10:38:35;;;;;;;9.48;6.20;;;;;;;4.71;69.17;98910.41;5012370;28;20395;-75
2023/03/27 10:41:05;;;;;;;13.30;6.70;;;;;;;4.97;70.04;98931.00;5012583;28;20121;-76
2023/03/27 10:43:39;;;;;;;10.93;4.75;;;;;;;5.14;70.13;98901.16;5012204;28;20149;-75
2023/03/27 10:46:09;;;;;;;10.43;4.28;;;;;;;5.28;70.15;98911.84;5012369;28;20060;-75
2023/03/27 10:49:10;;;;;;;4.00;2.83;;;;;;;5.56;67.28;98927.13;5012243;28;20124;-75
2023/03/27 10:51:43;;;;;;;7.95;4.00;;;;;;;5.73;67.04;98929.06;5012268;28;20030;-76
2023/03/27 10:54:31;;;;;;;10.00;3.35;;;;;;;5.94;65.98;98940.34;5011652;28;20514;-75
2023/03/27 10:57:04;;;;;;;5.65;3.40;;;;;;;5.74;65.90;98935.94;5012359;28;20034;-75
2023/03/27 10:59:49;;;;;;;5.65;3.60;;;;;;;5.40;65.62;98926.03;5012072;28;20030;-75
2023/03/27 11:02:26;;;;;;;7.80;4.05;;;;;;;5.59;66.76;98933.91;5020348;28;20506;-75
2023/03/27 11:04:55;;;;;;;4.28;3.30;;;;;;;5.54;66.56;98925.50;5034335;28;20029;-75
2023/03/27 11:07:39;;;;;;;7.25;5.28;;;;;;;5.60;66.63;98939.03;5033906;28;20025;-76
2023/03/27 11:10:20;;;;;;;6.13;4.22;;;;;;;5.50;65.42;98966.94;5034495;28;20036;-75
2023/03/27 11:13:00;;;;;;;6.18;4.20;;;;;;;5.31;65.33;98947.00;5034237;28;20018;-76
2023/03/27 11:15:32;;;;;;;4.10;3.53;;;;;;;5.28;64.52;98954.88;5033782;28;20026;-75
2023/03/27 11:18:00;;;;;;;;;;;;;;;5.21;64.75;98967.16;5034688;28;20032;-76
2023/03/27 11:20:39;;;;;;;10.70;4.57;;;;;;;5.32;65.17;98952.13;5033533;28;19917;-75
2023/03/27 11:23:13;;;;;;;5.28;2.90;;;;;;;5.74;64.04;98944.53;5033916;28;20021;-75
2023/03/27 11:25:43;;;;;;;4.85;2.92;;;;;;;5.97;62.92;98943.66;5033666;28;20029;-75
2023/03/27 11:28:33;;;;;;;5.35;3.38;;;;;;;5.75;62.22;98966.03;5033354;28;20519;-75
2023/03/27 11:31:31;;;;;;;7.55;5.32;;;;;;;5.88;62.61;98975.00;5041829;28;20025;-75
2023/03/27 11:34:04;;;;;;;5.03;4.05;;;;;;;5.86;62.50;98974.22;5041531;28;20025;-76
2023/03/27 11:36:38;;;;;;;6.10;4.22;;;;;;;5.83;62.26;98979.50;5040952;28;20021;-75
2023/03/27 11:39:08;;;;;;;6.15;2.90;;;;;;;5.67;62.07;98960.31;5045545;28;20025;-75
2023/03/27 11:41:34;;;;;;;6.35;4.65;;;;;;;5.81;62.03;98983.88;5053218;28;20393;-75
2023/03/27 11:44:00;;;;;;;6.35;3.55;;;;;;;5.96;62.25;98995.41;5046440;28;20025;-75
2023/03/27 11:47:12;;;;;;;5.95;3.58;;;;;;;6.19;61.90;98984.16;5033279;28;20167;-75
2023/03/27 11:49:37;;;;;;;;;;;;;;;5.94;61.10;98998.06;5011710;28;20057;-75
2023/03/27 11:52:18;;;;;;;7.80;3.38;;;;;;;5.83;62.07;98976.94;5010991;28;19913;-75
2023/03/27 11:55:17;;;;;;;3.80;3.05;;;;;;;5.83;61.94;99007.09;5011052;28;20048;-76